createdAt,value
2019-05-30T04:03:56.786Z,75.488281
2019-05-30T04:07:24.855Z,76.208496
2019-05-30T04:10:53.795Z,76.483154
2019-05-30T04:14:21.741Z,74.530029
2019-05-30T04:17:49.733Z,76.275635
2019-05-30T04:21:21.447Z,75.042725
2019-05-30T04:24:48.682Z,74.737549
2019-05-30T04:28:18.507Z,74.395752
2019-05-30T04:31:45.617Z,74.291992
2019-05-30T04:35:14.618Z,75.421143
2019-05-30T04:38:44.488Z,73.980713
2019-05-30T04:42:13.673Z,75.109863
2019-05-30T04:45:44.452Z,76.202393
2019-05-30T04:49:14.360Z,74.664307
2019-05-30T04:52:45.301Z,76.409912
2019-05-30T04:56:14.555Z,75.592041
2019-05-30T04:59:45.187Z,76.202393
2019-05-30T05:03:15.431Z,74.42627
2019-05-30T05:06:48.109Z,74.633789
2019-05-30T05:10:18.212Z,76.373291
2019-05-30T05:13:48.001Z,75.860596
2019-05-30T05:17:16.854Z,75.823975
2019-05-30T05:20:45.962Z,74.902344
2019-05-30T05:24:15.303Z,75.726318
2019-05-30T05:27:46.857Z,76.202393
2019-05-30T05:31:14.819Z,75.689697
2019-05-30T05:34:45.887Z,73.638916
2019-05-30T05:38:18.023Z,73.706055
2019-05-30T05:41:48.719Z,73.913574
2019-05-30T05:45:16.678Z,72.857666
2019-05-30T05:48:45.688Z,73.266602
2019-05-30T05:52:13.643Z,72.857666
2019-05-30T05:55:42.688Z,74.047852
2019-05-30T05:59:10.634Z,72.924805
2019-05-30T06:02:38.614Z,73.638916
2019-05-30T06:06:06.577Z,72.717285
2019-05-30T06:09:34.531Z,74.42627
2019-05-30T06:13:02.507Z,74.902344
2019-05-30T06:16:31.331Z,73.773193
2019-05-30T06:19:59.353Z,72.955322
2019-05-30T06:23:27.770Z,72.30835
2019-05-30T06:26:55.270Z,72.924805
2019-05-30T06:30:24.293Z,71.697998
2019-05-30T06:33:54.168Z,71.154785
2019-05-30T06:37:23.130Z,70.947266
2019-05-30T06:40:51.170Z,71.118164
2019-05-30T06:44:19.823Z,68.945312
2019-05-30T06:47:47.057Z,69.9646
2019-05-30T06:51:15.023Z,68.231201
2019-05-30T06:54:43.985Z,69.726562
2019-05-30T06:58:12.087Z,67.486572
2019-05-30T07:01:40.038Z,69.189453
2019-05-30T07:05:09.432Z,67.120361
2019-05-30T07:08:39.891Z,69.360352
2019-05-30T07:12:11.213Z,70.172119
2019-05-30T07:15:37.915Z,67.388916
2019-05-30T07:19:05.851Z,67.053223
2019-05-30T07:22:34.801Z,65.802002
2019-05-30T07:26:03.900Z,65.905762
2019-05-30T07:29:32.093Z,65.393066
2019-05-30T07:33:00.694Z,64.453125
2019-05-30T07:36:30.301Z,64.758301
2019-05-30T07:39:57.431Z,63.812256
2019-05-30T07:43:28.202Z,63.909912
2019-05-30T07:46:58.335Z,63.476562
2019-05-30T07:50:28.343Z,62.664795
2019-05-30T07:53:59.241Z,62.054443
2019-05-30T07:57:28.064Z,62.127686
2019-05-30T08:00:56.149Z,63.647461
2019-05-30T08:04:24.103Z,63.012695
2019-05-30T08:07:55.028Z,63.720703
2019-05-30T08:11:22.997Z,59.70459
2019-05-30T08:14:50.986Z,57.781982
2019-05-30T08:18:18.951Z,61.505127
2019-05-30T08:21:46.909Z,58.233643
2019-05-30T08:25:14.873Z,59.924316
2019-05-30T08:28:43.860Z,57.672119
2019-05-30T08:32:11.796Z,55.749512
2019-05-30T08:35:49.048Z,55.419922
2019-05-30T08:39:13.726Z,57.745361
2019-05-30T08:42:41.664Z,56.707764
2019-05-30T08:46:09.662Z,56.304932
2019-05-30T08:49:38.236Z,55.57251
2019-05-30T08:53:05.524Z,51.733398
2019-05-30T08:56:34.488Z,57.763672
2019-05-30T09:00:03.485Z,54.534912
2019-05-30T09:03:31.435Z,52.69165
2019-05-30T09:07:01.374Z,52.764893
2019-05-30T09:10:30.350Z,54.785156
2019-05-30T09:13:59.281Z,55.291748
2019-05-30T09:17:27.255Z,53.4729
2019-05-30T09:20:55.251Z,53.979492
2019-05-30T09:24:23.204Z,56.195068
2019-05-30T09:27:51.157Z,54.47998
2019-05-30T09:31:19.098Z,55.36499
2019-05-30T09:34:48.871Z,56.573486
2019-05-30T09:38:16.003Z,59.295654
2019-05-30T09:41:45.679Z,55.0354
2019-05-30T09:45:12.918Z,56.622314
2019-05-30T09:48:43.154Z,56.622314
2019-05-30T09:52:11.843Z,55.285645
2019-05-30T09:55:39.878Z,55.187988
2019-05-30T09:59:11.779Z,57.476807
2019-05-30T10:02:39.739Z,52.740479
2019-05-30T10:06:26.533Z,54.052734
2019-05-30T10:09:48.842Z,54.455566
2019-05-30T10:13:18.544Z,52.111816
2019-05-30T10:16:52.825Z,54.431152
2019-05-30T10:20:20.406Z,54.705811
2019-05-30T10:23:49.561Z,53.4729
2019-05-30T10:27:19.360Z,54.553223
2019-05-30T10:30:52.132Z,58.36792
2019-05-30T10:34:21.216Z,53.747559
2019-05-30T10:37:50.886Z,51.416016
2019-05-30T10:41:18.147Z,52.819824
2019-05-30T10:44:47.985Z,52.416992
2019-05-30T10:48:21.275Z,51.312256
2019-05-30T10:51:50.006Z,54.528809
2019-05-30T10:55:22.924Z,51.33667
2019-05-30T10:58:52.878Z,55.529785
2019-05-30T11:02:22.865Z,51.2146
2019-05-30T11:05:52.811Z,51.11084
2019-05-30T11:09:22.748Z,49.829102
2019-05-30T11:12:57.403Z,53.851318
2019-05-30T11:16:25.602Z,52.545166
2019-05-30T11:19:55.937Z,51.635742
2019-05-30T11:23:24.485Z,51.635742
2019-05-30T11:26:54.115Z,49.932861
2019-05-30T11:30:24.412Z,52.740479
2019-05-30T11:33:52.851Z,50.531006
2019-05-30T11:37:22.332Z,50.836182
2019-05-30T11:40:51.323Z,52.514648
2019-05-30T11:44:23.185Z,52.514648
2019-05-30T11:47:51.458Z,51.586914
2019-05-30T11:51:23.067Z,51.263428
2019-05-30T11:54:51.999Z,55.981445
2019-05-30T11:58:21.004Z,49.932861
2019-05-30T12:01:50.160Z,50.714111
2019-05-30T12:05:22.917Z,53.521729
2019-05-30T12:08:52.770Z,50.311279
2019-05-30T12:12:21.815Z,55.023193
2019-05-30T12:15:51.176Z,51.641846
2019-05-30T12:19:23.708Z,53.24707
2019-05-30T12:22:53.767Z,54.022217
2019-05-30T12:26:25.546Z,54.925537
2019-05-30T12:29:56.508Z,54.425049
2019-05-30T12:33:25.466Z,55.224609
2019-05-30T12:36:56.382Z,52.441406
2019-05-30T12:40:27.305Z,51.867676
2019-05-30T12:43:55.260Z,55.279541
2019-05-30T12:47:23.241Z,52.368164
2019-05-30T12:50:51.189Z,51.965332
2019-05-30T12:54:19.142Z,51.867676
2019-05-30T12:57:47.098Z,55.578613
2019-05-30T13:01:15.046Z,52.996826
2019-05-30T13:04:43.011Z,53.198242
2019-05-30T13:08:21.069Z,52.593994
2019-05-30T13:11:44.930Z,54.925537
2019-05-30T13:15:12.892Z,54.125977
2019-05-30T13:18:40.858Z,57.843018
2019-05-30T13:22:08.798Z,54.296875
2019-05-30T13:25:36.828Z,54.199219
2019-05-30T13:29:06.443Z,54.498291
2019-05-30T13:32:33.706Z,53.796387
2019-05-30T13:36:03.012Z,54.071045
2019-05-30T13:39:32.615Z,55.780029
2019-05-30T13:43:01.791Z,54.473877
2019-05-30T13:46:32.492Z,54.498291
2019-05-30T13:50:03.066Z,54.974365
2019-05-30T13:53:36.041Z,56.378174
2019-05-30T13:57:03.992Z,57.910156
2019-05-30T14:00:32.941Z,58.03833
2019-05-30T14:04:03.057Z,60.650635
2019-05-30T14:07:33.824Z,58.36792
2019-05-30T14:11:02.473Z,59.472656
2019-05-30T14:14:29.752Z,59.27124
2019-05-30T14:17:57.728Z,60.205078
2019-05-30T14:21:26.728Z,63.018799
2019-05-30T14:24:54.683Z,60.882568
2019-05-30T14:28:22.655Z,58.770752
2019-05-30T14:31:50.617Z,60.205078
2019-05-30T14:35:18.580Z,59.906006
2019-05-30T14:38:58.123Z,59.70459
2019-05-30T14:42:22.942Z,59.60083
2019-05-30T14:45:50.893Z,59.70459
2019-05-30T14:49:19.843Z,61.010742
2019-05-30T14:52:47.796Z,60.131836
2019-05-30T14:56:15.747Z,61.645508
2019-05-30T14:59:43.725Z,59.735107
2019-05-30T15:03:15.525Z,60.131836
2019-05-30T15:06:42.667Z,60.333252
2019-05-30T15:10:12.720Z,60.839844
2019-05-30T15:13:41.602Z,61.26709
2019-05-30T15:17:10.010Z,61.468506
2019-05-30T15:20:39.505Z,61.37085
2019-05-30T15:24:09.677Z,62.878418
2019-05-30T15:27:39.462Z,62.475586
2019-05-30T15:31:08.236Z,62.475586
2019-05-30T15:34:35.441Z,63.012695
2019-05-30T15:38:03.412Z,64.72168
2019-05-30T15:41:34.383Z,64.953613
2019-05-30T15:45:02.386Z,66.064453
2019-05-30T15:48:31.406Z,67.071533
2019-05-30T15:51:59.310Z,68.078613
2019-05-30T15:55:27.269Z,67.138672
2019-05-30T15:58:55.233Z,67.74292
2019-05-30T16:02:23.213Z,67.74292
2019-05-30T16:05:51.187Z,69.451904
2019-05-30T16:09:19.166Z,67.541504
2019-05-30T16:12:47.109Z,68.145752
2019-05-30T16:16:15.677Z,68.041992
2019-05-30T16:19:46.024Z,69.18335
2019-05-30T16:23:14.529Z,69.787598
2019-05-30T16:26:46.934Z,69.586182
2019-05-30T16:30:19.530Z,70.623779
2019-05-30T16:33:48.820Z,72.540283
2019-05-30T16:37:18.045Z,71.838379
2019-05-30T16:40:47.752Z,72.875977
2019-05-30T16:44:16.618Z,72.271729
2019-05-30T16:47:49.062Z,74.291992
2019-05-30T16:51:16.631Z,73.480225
2019-05-30T16:54:47.638Z,76.641846
2019-05-30T16:58:15.721Z,79.772949
2019-05-30T17:01:45.784Z,80.615234
2019-05-30T17:05:18.749Z,81.964111
2019-05-30T17:08:46.757Z,81.158447
2019-05-30T17:12:15.402Z,80.285645
2019-05-30T17:15:44.751Z,79.882812
2019-05-30T17:19:12.756Z,79.47998
2019-05-30T17:22:43.724Z,79.376221
2019-05-30T17:26:12.660Z,79.681396
2019-05-30T17:29:42.630Z,79.278564
2019-05-30T17:33:10.621Z,79.785156
2019-05-30T17:36:40.658Z,80.084229
2019-05-30T17:40:08.598Z,79.376221
2019-05-30T17:43:37.556Z,79.577637
2019-05-30T17:47:05.508Z,79.986572
2019-05-30T17:50:33.448Z,80.59082
2019-05-30T17:54:01.450Z,79.577637
2019-05-30T17:57:31.409Z,79.785156
2019-05-30T18:00:59.359Z,79.376221
2019-05-30T18:04:28.539Z,80.023193
2019-05-30T18:07:57.276Z,81.030273
2019-05-30T18:11:25.273Z,80.224609
2019-05-30T18:14:53.274Z,80.12085
2019-05-30T18:18:25.186Z,80.932617
2019-05-30T18:21:55.806Z,80.993652
2019-05-30T18:25:25.616Z,85.076904
2019-05-30T18:28:52.747Z,85.821533
2019-05-30T18:32:21.953Z,89.160156
2019-05-30T18:35:54.726Z,89.300537
2019-05-30T18:39:22.715Z,89.703369
2019-05-30T18:42:50.676Z,89.038086
2019-05-30T18:46:18.630Z,90.557861
2019-05-30T18:49:47.681Z,89.746094
2019-05-30T18:53:15.604Z,90.356445
2019-05-30T18:56:43.570Z,91.204834
2019-05-30T19:00:14.670Z,90.905762
2019-05-30T19:03:43.711Z,91.412354
2019-05-30T19:07:11.888Z,91.003418
2019-05-30T19:10:39.991Z,91.204834
2019-05-30T19:14:07.971Z,91.308594
2019-05-30T19:17:36.977Z,90.496826
2019-05-30T19:21:05.903Z,91.918945
2019-05-30T19:24:34.175Z,91.308594
2019-05-30T19:28:01.915Z,91.815186
2019-05-30T19:31:30.579Z,91.003418
2019-05-30T19:34:57.912Z,91.308594
2019-05-30T19:38:27.235Z,91.107178
2019-05-30T19:41:59.770Z,90.29541
2019-05-30T19:45:29.846Z,90.905762
2019-05-30T19:49:01.748Z,90.704346
2019-05-30T19:52:30.627Z,90.496826
2019-05-30T19:55:58.673Z,89.788818
2019-05-30T19:59:26.634Z,89.990234
2019-05-30T20:02:55.726Z,89.385986
2019-05-30T20:06:24.988Z,90.093994
2019-05-30T20:10:01.086Z,89.385986
2019-05-30T20:13:27.845Z,90.093994
2019-05-30T20:16:58.782Z,89.892578
2019-05-30T20:20:26.739Z,90.661621
2019-05-30T20:23:59.444Z,90.197754
2019-05-30T20:27:28.020Z,89.788818
2019-05-30T20:31:00.978Z,90.704346
2019-05-30T20:34:28.935Z,89.587402
2019-05-30T20:37:57.889Z,89.483643
2019-05-30T20:41:26.887Z,88.531494
2019-05-30T20:44:54.837Z,88.024902
2019-05-30T20:48:23.662Z,88.330078
2019-05-30T20:51:52.499Z,87.72583
2019-05-30T20:55:21.462Z,87.927246
2019-05-30T20:58:49.425Z,87.524414
2019-05-30T21:02:17.523Z,87.72583
2019-05-30T21:05:46.008Z,87.62207
2019-05-30T21:09:28.191Z,87.62207
2019-05-30T21:12:49.629Z,87.62207
2019-05-30T21:16:17.306Z,87.524414
2019-05-30T21:19:46.065Z,87.823486
2019-05-30T21:23:13.254Z,88.024902
2019-05-30T21:26:41.215Z,87.72583
2019-05-30T21:30:10.163Z,88.330078
2019-05-30T21:33:39.562Z,88.024902
2019-05-30T21:37:11.013Z,88.024902
2019-05-30T21:40:40.316Z,87.927246
2019-05-30T21:44:11.903Z,88.635254
2019-05-30T21:47:42.757Z,88.94043
2019-05-30T21:51:11.767Z,88.635254
2019-05-30T21:54:41.606Z,89.544678
2019-05-30T21:58:09.721Z,88.128662
